• Join FlightAware (Why Join?)
  • Login
  • US Flag 
12:20AM EDT


 

Airport Tracker/Info


-or-


 

Live Flight TrackerFlight Track Log ✈ GJS3649 ✈ 24-Aug-2013 ✈ KORD - KMSP

Flight Track Log - Related Links

Times and Time Zones

All times are in EDT time to prevent confusion due to time zone crossing. See the GJS3649 flight status page for this flight to view local times or setup timezone preferences in your user account.

Time Position Orientation Groundspeed Altitude Reporting Facility
EDT Latitude Longitude Course Direction KTS MPH feet Rate Location/Type
09:01AM 41.9667 -87.8833 346° North 159 183 1,600  Level Chicago TRACON
09:02AM 41.9667 -87.8167 90° East 205 236 3,300 1,320 Climbing Chicago TRACON
09:05AM 42.3386 -88.0138 350° North  Level FlightAware Approximate
09:05AM 41.9669 -87.5836 90° East 282 325 6,200  Level Chicago Center
09:06AM 42.4296 -88.0526 352° North  Level FlightAware Approximate
09:06AM 42.0228 -87.5253 38° Northeast 273 314 8,900  Level Chicago Center
09:07AM 42.5205 -88.0846 346° North  Level FlightAware Approximate
09:07AM 42.0908 -87.5717 333° Northwest 275 316 11,600  Level Chicago Center
09:08AM 42.1519 -87.6442 319° Northwest 304 350 13,900 1,620 Climbing Chicago Center
09:09AM 42.2408 -87.6883 340° North 316 364 15,000 1,260 Climbing Chicago Center
09:10AM 42.3239 -87.6917 358° North 303 349 16,500 1,680 Climbing Chicago Center
09:11AM 42.4072 -87.7147 348° North 318 366 18,500 2,040 Climbing Chicago Center
09:12AM 42.4842 -87.7767 329° Northwest 314 361 20,700 1,560 Climbing Chicago Center
09:13AM 42.5653 -87.8406 330° Northwest 337 388 21,700 1,080 Climbing Chicago Center
09:14AM 42.6533 -87.9086 330° Northwest 357 411 23,000 1,260 Climbing Chicago Center
09:15AM 42.7436 -87.9822 329° Northwest 373 429 24,400 1,380 Climbing Chicago Center
09:17AM 42.8570 -88.0733 330° Northwest  Level FlightAware Approximate
09:17AM 42.9478 -88.1461 330° Northwest 395 455 27,300  Level Chicago Center
09:18AM 43.0431 -88.2275 328° Northwest 402 463 28,600 1,200 Climbing Chicago Center
09:19AM 43.1339 -88.3147 325° Northwest 399 459 29,800 1,020 Climbing Chicago Center
09:20AM 43.2058 -88.4392 308° West 411 473 30,800 900 Climbing Chicago Center
09:21AM 43.2789 -88.5658 308° West 418 481 31,700 540 Climbing Chicago Center
09:22AM 43.3542 -88.6950 309° West 422 486 32,000 120 Climbing Chicago Center
09:23AM 43.4264 -88.8186 309° West 411 473 32,000  Level Chicago Center
09:24AM 43.4967 -88.9383 309° West 402 463 32,000  Level Chicago Center
09:25AM 43.5653 -89.0578 308° West 396 456 32,000  Level Chicago Center
09:26AM 43.6336 -89.1778 308° West 397 457 32,000  Level Chicago Center
09:27AM 43.7156 -89.3211 308° West 405 466 32,000  Level Chicago Center
09:28AM 43.7850 -89.4433 308° West 405 466 32,000  Level Chicago Center
09:29AM 43.8539 -89.5656 308° West 403 464 32,000  Level Chicago Center
09:31AM 43.9203 -89.6886 307° West 399 459 32,000  Level Chicago Center
09:32AM 43.9783 -89.8194 302° West 399 459 32,000  Level Chicago Center
09:33AM 44.0392 -89.9508 303° West 401 461 32,000  Level Chicago Center
09:34AM 44.1069 -90.1042 302° West 400 460 32,000  Level Chicago Center
09:34AM 44.1258 -90.1483 301° West 403 464 32,000  Level Minneapolis Center
09:35AM 44.1931 -90.3025 301° West 400 460 32,000 -360 Level Minneapolis Center
09:36AM 44.2817 -90.4336 313° West 404 465 31,200 -900 Descending Minneapolis Center
09:37AM 44.3692 -90.5306 322° Northwest 402 463 30,200 -600 Descending Minneapolis Center
09:38AM 44.4667 -90.6064 331° Northwest 399 459 30,000 -120 Descending Minneapolis Center
09:39AM 44.5839 -90.6597 342° North 390 449 30,000  Level Minneapolis Center
09:40AM 44.6878 -90.7047 343° North 393 452 30,000  Level Minneapolis Center
09:41AM 44.7897 -90.7575 340° North 391 450 30,000 -420 Level Minneapolis Center
09:42AM 44.8928 -90.8061 342° North 389 448 29,200 -900 Descending Minneapolis Center
09:44AM 44.9603 -90.9078 313° West 382 440 28,200 -1,260 Descending Minneapolis Center
09:45AM 44.9736 -91.0539 277° West 381 438 26,700 -1,860 Descending Minneapolis Center
09:46AM 44.9964 -91.1892 283° West 367 422 24,500 -2,160 Descending Minneapolis Center
09:47AM 45.0344 -91.3142 293° West 351 404 22,300 -2,160 Descending Minneapolis Center
09:49AM 45.0989 -91.6019 288° West 354 407 17,900 -1,860 Descending Minneapolis Center
09:50AM 45.0906 -91.7347 265° West 338 389 16,600 -1,560 Descending Minneapolis Center
09:51AM 45.0794 -91.8747 264° West 337 388 14,800 -1,500 Descending Minneapolis Center
09:52AM 45.0714 -91.9908 264° West 324 373 13,600 -1,200 Descending Minneapolis Center
09:53AM 45.0622 -92.1167 264° West 324 373 12,400 -1,200 Descending Minneapolis Center
09:54AM 45.0525 -92.2381 264° West 314 361 11,200 -660 Descending Minneapolis Center
09:55AM 45.0392 -92.3569 261° West 308 354 11,100 -60 Descending Minneapolis Center
09:56AM 45.0203 -92.4711 257° West 302 348 11,100 -60 Level Minneapolis Center
09:57AM 44.9981 -92.6108 257° West 304 350 11,000 -60 Descending Minneapolis Center
09:58AM 44.9789 -92.7258 257° West 302 348 11,000  Level Minneapolis Center
09:59AM 44.9600 -92.8422 257° West 305 351 11,000 -660 Level Minneapolis Center
10:00AM 44.9428 -92.9478 257° West 281 323 9,700 -1,440 Descending Minneapolis Center
10:01AM 44.9264 -93.0503 257° West 272 313 8,100 -900 Descending Minneapolis Center
10:02AM 44.9636 -93.1433 300° West 283 326 7,900 -600 Descending Minneapolis Center
10:03AM 45.0119 -93.2328 307° West 289 333 7,000 -1,380 Descending Minneapolis Center
10:04AM 45.0697 -93.3342 309° West 277 319 5,100 -1,560 Descending Minneapolis Center
10:05AM 45.0767 -93.4267 276° West 243 280 3,900 -600 Descending Minneapolis Center
10:06AM 45.0661 -93.4939 257° West 174 200 3,900 -300 Level Minneapolis Center
10:07AM 45.0250 -93.5031 189° South 153 176 3,400 -540 Descending Minneapolis Center
10:08AM 44.9922 -93.4542 133° Southeast 169 194 2,900 -240 Descending Minneapolis Center
10:09AM 44.9683 -93.3917 118° Southeast 181 208 3,000 -120 Climbing Minneapolis Center
10:10AM 44.9428 -93.3344 122° Southeast 175 201 2,700 -540 Descending Minneapolis Center
10:11AM 44.9233 -93.2900 122° Southeast 136 157 2,000 -840 Descending Minneapolis Center
10:12AM 44.9000 -93.2375 122° Southeast 131 151 1,100 -900 Descending Minneapolis Center